sensor_id;sensor_type;location;lat;lon;timestamp;temperature;humidity
59973;DHT22;55298;-36.624;-64.282;2023-05-07T00:00:29;16.80;77.00
59973;DHT22;55298;-36.624;-64.282;2023-05-07T00:02:57;16.80;76.90
59973;DHT22;55298;-36.624;-64.282;2023-05-07T00:05:25;16.70;77.60
59973;DHT22;55298;-36.624;-64.282;2023-05-07T00:07:53;16.70;76.80
59973;DHT22;55298;-36.624;-64.282;2023-05-07T00:10:21;16.70;76.10
59973;DHT22;55298;-36.624;-64.282;2023-05-07T00:12:49;16.70;77.60
59973;DHT22;55298;-36.624;-64.282;2023-05-07T00:15:16;16.60;77.90
59973;DHT22;55298;-36.624;-64.282;2023-05-07T00:17:44;16.60;78.20
59973;DHT22;55298;-36.624;-64.282;2023-05-07T00:20:12;16.60;78.90
59973;DHT22;55298;-36.624;-64.282;2023-05-07T00:22:40;16.50;79.10
59973;DHT22;55298;-36.624;-64.282;2023-05-07T00:25:08;16.50;78.70
59973;DHT22;55298;-36.624;-64.282;2023-05-07T00:27:36;16.50;78.40
59973;DHT22;55298;-36.624;-64.282;2023-05-07T00:30:05;16.50;78.80
59973;DHT22;55298;-36.624;-64.282;2023-05-07T00:32:33;16.50;77.90
59973;DHT22;55298;-36.624;-64.282;2023-05-07T00:35:01;16.50;77.70
59973;DHT22;55298;-36.624;-64.282;2023-05-07T00:37:29;16.50;77.70
59973;DHT22;55298;-36.624;-64.282;2023-05-07T00:39:57;16.40;78.80
59973;DHT22;55298;-36.624;-64.282;2023-05-07T00:42:24;16.40;79.10
59973;DHT22;55298;-36.624;-64.282;2023-05-07T00:44:52;16.40;79.80
59973;DHT22;55298;-36.624;-64.282;2023-05-07T00:47:20;16.30;79.60
59973;DHT22;55298;-36.624;-64.282;2023-05-07T00:49:48;16.30;79.80
59973;DHT22;55298;-36.624;-64.282;2023-05-07T00:52:17;16.30;79.70
59973;DHT22;55298;-36.624;-64.282;2023-05-07T00:54:45;16.20;79.60
59973;DHT22;55298;-36.624;-64.282;2023-05-07T00:57:13;16.20;79.60
59973;DHT22;55298;-36.624;-64.282;2023-05-07T00:59:42;16.20;79.10
59973;DHT22;55298;-36.624;-64.282;2023-05-07T01:02:10;16.10;78.40
59973;DHT22;55298;-36.624;-64.282;2023-05-07T01:04:37;16.20;79.30
59973;DHT22;55298;-36.624;-64.282;2023-05-07T01:07:06;16.10;79.60
59973;DHT22;55298;-36.624;-64.282;2023-05-07T01:09:35;16.10;80.00
59973;DHT22;55298;-36.624;-64.282;2023-05-07T01:12:04;16.10;80.10
59973;DHT22;55298;-36.624;-64.282;2023-05-07T01:14:33;16.10;80.20
59973;DHT22;55298;-36.624;-64.282;2023-05-07T01:17:02;16.10;79.50
59973;DHT22;55298;-36.624;-64.282;2023-05-07T01:19:30;16.20;78.80
59973;DHT22;55298;-36.624;-64.282;2023-05-07T01:22:02;16.10;78.60
59973;DHT22;55298;-36.624;-64.282;2023-05-07T01:24:33;16.10;79.20
59973;DHT22;55298;-36.624;-64.282;2023-05-07T01:27:01;16.10;80.10
59973;DHT22;55298;-36.624;-64.282;2023-05-07T01:29:29;16.00;80.00
59973;DHT22;55298;-36.624;-64.282;2023-05-07T01:32:00;16.00;81.10
59973;DHT22;55298;-36.624;-64.282;2023-05-07T01:34:30;15.90;81.60
59973;DHT22;55298;-36.624;-64.282;2023-05-07T01:36:59;15.90;81.30
59973;DHT22;55298;-36.624;-64.282;2023-05-07T01:39:29;15.80;81.40
59973;DHT22;55298;-36.624;-64.282;2023-05-07T01:41:57;15.80;81.50
59973;DHT22;55298;-36.624;-64.282;2023-05-07T01:44:26;15.80;80.70
59973;DHT22;55298;-36.624;-64.282;2023-05-07T01:46:55;15.90;80.60
59973;DHT22;55298;-36.624;-64.282;2023-05-07T01:49:24;15.80;80.10
59973;DHT22;55298;-36.624;-64.282;2023-05-07T01:51:53;15.90;79.80
59973;DHT22;55298;-36.624;-64.282;2023-05-07T01:54:26;15.90;80.10
59973;DHT22;55298;-36.624;-64.282;2023-05-07T01:56:57;16.00;79.10
59973;DHT22;55298;-36.624;-64.282;2023-05-07T01:59:25;16.00;78.90
59973;DHT22;55298;-36.624;-64.282;2023-05-07T02:01:53;16.10;78.50
59973;DHT22;55298;-36.624;-64.282;2023-05-07T02:04:20;16.10;78.20
59973;DHT22;55298;-36.624;-64.282;2023-05-07T02:06:48;16.10;77.50
59973;DHT22;55298;-36.624;-64.282;2023-05-07T02:09:16;16.10;76.80
59973;DHT22;55298;-36.624;-64.282;2023-05-07T02:11:44;16.10;75.00
59973;DHT22;55298;-36.624;-64.282;2023-05-07T02:14:12;16.20;74.60
59973;DHT22;55298;-36.624;-64.282;2023-05-07T02:16:40;16.20;74.10
59973;DHT22;55298;-36.624;-64.282;2023-05-07T02:19:08;16.20;73.90
59973;DHT22;55298;-36.624;-64.282;2023-05-07T02:21:37;16.20;73.30
59973;DHT22;55298;-36.624;-64.282;2023-05-07T02:24:05;16.30;73.30
59973;DHT22;55298;-36.624;-64.282;2023-05-07T02:26:33;16.30;73.80
59973;DHT22;55298;-36.624;-64.282;2023-05-07T02:29:01;16.30;73.10
59973;DHT22;55298;-36.624;-64.282;2023-05-07T02:31:29;16.30;73.10
59973;DHT22;55298;-36.624;-64.282;2023-05-07T02:33:56;16.30;73.30
59973;DHT22;55298;-36.624;-64.282;2023-05-07T02:36:24;16.30;73.60
59973;DHT22;55298;-36.624;-64.282;2023-05-07T02:38:53;16.20;74.40
59973;DHT22;55298;-36.624;-64.282;2023-05-07T02:41:22;16.10;75.40
59973;DHT22;55298;-36.624;-64.282;2023-05-07T02:43:50;16.10;76.10
59973;DHT22;55298;-36.624;-64.282;2023-05-07T02:46:18;16.00;76.40
59973;DHT22;55298;-36.624;-64.282;2023-05-07T02:48:46;16.00;76.60
59973;DHT22;55298;-36.624;-64.282;2023-05-07T02:51:13;16.00;77.40
59973;DHT22;55298;-36.624;-64.282;2023-05-07T02:53:41;15.80;78.60
59973;DHT22;55298;-36.624;-64.282;2023-05-07T02:56:09;15.80;78.90
59973;DHT22;55298;-36.624;-64.282;2023-05-07T02:58:37;15.80;79.60
59973;DHT22;55298;-36.624;-64.282;2023-05-07T03:01:06;15.60;80.30
59973;DHT22;55298;-36.624;-64.282;2023-05-07T03:03:34;15.60;81.70
59973;DHT22;55298;-36.624;-64.282;2023-05-07T03:06:02;15.50;81.60
59973;DHT22;55298;-36.624;-64.282;2023-05-07T03:08:30;15.40;82.10
59973;DHT22;55298;-36.624;-64.282;2023-05-07T03:10:58;15.40;82.70
59973;DHT22;55298;-36.624;-64.282;2023-05-07T03:13:26;15.30;83.40
59973;DHT22;55298;-36.624;-64.282;2023-05-07T03:15:53;15.20;83.40
59973;DHT22;55298;-36.624;-64.282;2023-05-07T03:18:21;15.30;83.10
59973;DHT22;55298;-36.624;-64.282;2023-05-07T03:20:49;15.20;83.90
59973;DHT22;55298;-36.624;-64.282;2023-05-07T03:23:17;15.20;84.80
59973;DHT22;55298;-36.624;-64.282;2023-05-07T03:25:48;15.20;84.40
59973;DHT22;55298;-36.624;-64.282;2023-05-07T03:28:16;15.10;85.30
59973;DHT22;55298;-36.624;-64.282;2023-05-07T03:30:43;15.10;85.90
59973;DHT22;55298;-36.624;-64.282;2023-05-07T03:33:11;15.10;86.50
59973;DHT22;55298;-36.624;-64.282;2023-05-07T03:35:39;15.00;87.50
59973;DHT22;55298;-36.624;-64.282;2023-05-07T03:38:08;15.00;87.70
59973;DHT22;55298;-36.624;-64.282;2023-05-07T03:40:36;14.90;88.10
59973;DHT22;55298;-36.624;-64.282;2023-05-07T03:43:03;14.90;89.30
59973;DHT22;55298;-36.624;-64.282;2023-05-07T03:45:31;14.80;90.10
59973;DHT22;55298;-36.624;-64.282;2023-05-07T03:47:59;14.70;90.30
59973;DHT22;55298;-36.624;-64.282;2023-05-07T03:50:26;14.70;90.30
59973;DHT22;55298;-36.624;-64.282;2023-05-07T03:52:54;14.70;90.30
59973;DHT22;55298;-36.624;-64.282;2023-05-07T03:55:22;14.80;90.20
59973;DHT22;55298;-36.624;-64.282;2023-05-07T03:57:50;14.70;90.00
59973;DHT22;55298;-36.624;-64.282;2023-05-07T04:00:17;14.70;89.60
59973;DHT22;55298;-36.624;-64.282;2023-05-07T04:02:46;14.80;90.00
59973;DHT22;55298;-36.624;-64.282;2023-05-07T04:05:15;14.80;90.50
59973;DHT22;55298;-36.624;-64.282;2023-05-07T04:07:43;14.70;90.60
59973;DHT22;55298;-36.624;-64.282;2023-05-07T04:10:11;14.70;91.00
59973;DHT22;55298;-36.624;-64.282;2023-05-07T04:12:40;14.70;91.00
59973;DHT22;55298;-36.624;-64.282;2023-05-07T04:15:08;14.70;90.90
59973;DHT22;55298;-36.624;-64.282;2023-05-07T04:17:35;14.70;91.20
59973;DHT22;55298;-36.624;-64.282;2023-05-07T04:20:03;14.70;91.30
59973;DHT22;55298;-36.624;-64.282;2023-05-07T04:22:33;14.60;91.40
59973;DHT22;55298;-36.624;-64.282;2023-05-07T04:25:02;14.60;91.70
59973;DHT22;55298;-36.624;-64.282;2023-05-07T04:27:30;14.60;91.70
59973;DHT22;55298;-36.624;-64.282;2023-05-07T04:29:57;14.60;91.80
59973;DHT22;55298;-36.624;-64.282;2023-05-07T04:32:28;14.60;91.70
59973;DHT22;55298;-36.624;-64.282;2023-05-07T04:34:57;14.60;92.00
59973;DHT22;55298;-36.624;-64.282;2023-05-07T04:37:26;14.50;92.00
59973;DHT22;55298;-36.624;-64.282;2023-05-07T04:39:54;14.40;92.60
59973;DHT22;55298;-36.624;-64.282;2023-05-07T04:42:21;14.40;92.80
59973;DHT22;55298;-36.624;-64.282;2023-05-07T04:44:53;14.40;92.90
59973;DHT22;55298;-36.624;-64.282;2023-05-07T04:47:21;14.30;93.60
59973;DHT22;55298;-36.624;-64.282;2023-05-07T04:49:50;14.30;93.10
59973;DHT22;55298;-36.624;-64.282;2023-05-07T04:52:18;14.30;93.20
59973;DHT22;55298;-36.624;-64.282;2023-05-07T04:54:47;14.20;93.70
59973;DHT22;55298;-36.624;-64.282;2023-05-07T04:57:14;14.20;93.20
59973;DHT22;55298;-36.624;-64.282;2023-05-07T04:59:44;14.20;93.10
59973;DHT22;55298;-36.624;-64.282;2023-05-07T05:02:13;14.10;93.80
59973;DHT22;55298;-36.624;-64.282;2023-05-07T05:04:41;14.10;94.00
59973;DHT22;55298;-36.624;-64.282;2023-05-07T05:07:08;14.10;94.50
59973;DHT22;55298;-36.624;-64.282;2023-05-07T05:09:36;14.00;94.20
59973;DHT22;55298;-36.624;-64.282;2023-05-07T05:12:04;14.00;95.00
59973;DHT22;55298;-36.624;-64.282;2023-05-07T05:14:33;13.90;95.20
59973;DHT22;55298;-36.624;-64.282;2023-05-07T05:17:01;13.90;95.20
59973;DHT22;55298;-36.624;-64.282;2023-05-07T05:19:30;13.90;95.40
59973;DHT22;55298;-36.624;-64.282;2023-05-07T05:21:58;13.90;95.40
59973;DHT22;55298;-36.624;-64.282;2023-05-07T05:24:27;13.90;95.20
59973;DHT22;55298;-36.624;-64.282;2023-05-07T05:26:55;13.90;95.00
59973;DHT22;55298;-36.624;-64.282;2023-05-07T05:29:24;13.90;95.00
59973;DHT22;55298;-36.624;-64.282;2023-05-07T05:31:52;14.00;95.00
59973;DHT22;55298;-36.624;-64.282;2023-05-07T05:34:20;13.90;94.80
59973;DHT22;55298;-36.624;-64.282;2023-05-07T05:36:48;14.00;94.60
59973;DHT22;55298;-36.624;-64.282;2023-05-07T05:39:16;14.00;94.60
59973;DHT22;55298;-36.624;-64.282;2023-05-07T05:41:44;14.00;94.30
59973;DHT22;55298;-36.624;-64.282;2023-05-07T05:44:12;14.00;94.30
59973;DHT22;55298;-36.624;-64.282;2023-05-07T05:46:39;14.00;93.90
59973;DHT22;55298;-36.624;-64.282;2023-05-07T05:49:08;14.00;94.00
59973;DHT22;55298;-36.624;-64.282;2023-05-07T05:51:35;13.90;94.00
59973;DHT22;55298;-36.624;-64.282;2023-05-07T05:54:03;14.00;93.90
59973;DHT22;55298;-36.624;-64.282;2023-05-07T05:56:31;14.00;94.10
59973;DHT22;55298;-36.624;-64.282;2023-05-07T05:58:59;14.10;94.30
59973;DHT22;55298;-36.624;-64.282;2023-05-07T06:01:27;13.90;94.40
59973;DHT22;55298;-36.624;-64.282;2023-05-07T06:03:55;13.90;94.40
59973;DHT22;55298;-36.624;-64.282;2023-05-07T06:06:23;13.90;94.20
59973;DHT22;55298;-36.624;-64.282;2023-05-07T06:08:51;13.80;94.30
59973;DHT22;55298;-36.624;-64.282;2023-05-07T06:11:18;13.70;94.50
59973;DHT22;55298;-36.624;-64.282;2023-05-07T06:13:46;13.70;94.50
59973;DHT22;55298;-36.624;-64.282;2023-05-07T06:16:15;13.70;94.40
59973;DHT22;55298;-36.624;-64.282;2023-05-07T06:18:42;13.70;94.10
59973;DHT22;55298;-36.624;-64.282;2023-05-07T06:21:13;13.70;93.90
59973;DHT22;55298;-36.624;-64.282;2023-05-07T06:23:41;13.70;94.10
59973;DHT22;55298;-36.624;-64.282;2023-05-07T06:26:09;13.70;93.70
59973;DHT22;55298;-36.624;-64.282;2023-05-07T06:28:36;13.70;93.60
59973;DHT22;55298;-36.624;-64.282;2023-05-07T06:31:13;13.70;93.50
59973;DHT22;55298;-36.624;-64.282;2023-05-07T06:33:44;13.60;93.70
59973;DHT22;55298;-36.624;-64.282;2023-05-07T06:36:12;13.60;93.50
59973;DHT22;55298;-36.624;-64.282;2023-05-07T06:38:40;13.60;93.50
59973;DHT22;55298;-36.624;-64.282;2023-05-07T06:41:07;13.50;93.60
59973;DHT22;55298;-36.624;-64.282;2023-05-07T06:43:36;13.50;93.60
59973;DHT22;55298;-36.624;-64.282;2023-05-07T06:46:03;13.50;93.40
59973;DHT22;55298;-36.624;-64.282;2023-05-07T06:48:31;13.40;93.40
59973;DHT22;55298;-36.624;-64.282;2023-05-07T06:50:59;13.30;93.90
59973;DHT22;55298;-36.624;-64.282;2023-05-07T06:53:27;13.30;94.10
59973;DHT22;55298;-36.624;-64.282;2023-05-07T06:55:57;13.10;94.40
59973;DHT22;55298;-36.624;-64.282;2023-05-07T06:58:25;13.10;94.70
59973;DHT22;55298;-36.624;-64.282;2023-05-07T07:00:53;13.00;94.70
59973;DHT22;55298;-36.624;-64.282;2023-05-07T07:03:21;13.00;94.60
59973;DHT22;55298;-36.624;-64.282;2023-05-07T07:05:52;12.90;94.80
59973;DHT22;55298;-36.624;-64.282;2023-05-07T07:08:20;12.80;95.40
59973;DHT22;55298;-36.624;-64.282;2023-05-07T07:10:49;12.80;95.00
59973;DHT22;55298;-36.624;-64.282;2023-05-07T07:13:16;12.80;95.20
59973;DHT22;55298;-36.624;-64.282;2023-05-07T07:15:44;12.80;95.10
59973;DHT22;55298;-36.624;-64.282;2023-05-07T07:18:12;12.70;95.00
59973;DHT22;55298;-36.624;-64.282;2023-05-07T07:20:40;12.70;94.80
59973;DHT22;55298;-36.624;-64.282;2023-05-07T07:23:07;12.70;94.80
59973;DHT22;55298;-36.624;-64.282;2023-05-07T07:25:35;12.70;94.90
59973;DHT22;55298;-36.624;-64.282;2023-05-07T07:28:03;12.70;94.80
59973;DHT22;55298;-36.624;-64.282;2023-05-07T07:30:31;12.70;94.90
59973;DHT22;55298;-36.624;-64.282;2023-05-07T07:32:59;12.70;94.90
59973;DHT22;55298;-36.624;-64.282;2023-05-07T07:35:30;12.60;95.00
59973;DHT22;55298;-36.624;-64.282;2023-05-07T07:37:58;12.60;95.10
59973;DHT22;55298;-36.624;-64.282;2023-05-07T07:40:26;12.50;94.90
59973;DHT22;55298;-36.624;-64.282;2023-05-07T07:42:54;12.50;94.90
59973;DHT22;55298;-36.624;-64.282;2023-05-07T07:45:22;12.40;94.90
59973;DHT22;55298;-36.624;-64.282;2023-05-07T07:47:50;12.40;95.10
59973;DHT22;55298;-36.624;-64.282;2023-05-07T07:50:18;12.30;95.30
59973;DHT22;55298;-36.624;-64.282;2023-05-07T07:52:45;12.30;95.20
59973;DHT22;55298;-36.624;-64.282;2023-05-07T07:55:13;12.30;95.60
59973;DHT22;55298;-36.624;-64.282;2023-05-07T07:57:47;12.30;95.50
59973;DHT22;55298;-36.624;-64.282;2023-05-07T08:00:16;12.30;95.40
59973;DHT22;55298;-36.624;-64.282;2023-05-07T08:02:43;12.30;95.40
59973;DHT22;55298;-36.624;-64.282;2023-05-07T08:05:11;12.30;95.50
59973;DHT22;55298;-36.624;-64.282;2023-05-07T08:07:39;12.20;95.50
59973;DHT22;55298;-36.624;-64.282;2023-05-07T08:10:07;12.20;95.40
59973;DHT22;55298;-36.624;-64.282;2023-05-07T08:12:35;12.10;95.60
59973;DHT22;55298;-36.624;-64.282;2023-05-07T08:15:03;12.10;95.70
59973;DHT22;55298;-36.624;-64.282;2023-05-07T08:17:31;12.10;95.80
59973;DHT22;55298;-36.624;-64.282;2023-05-07T08:19:59;12.10;95.50
59973;DHT22;55298;-36.624;-64.282;2023-05-07T08:22:27;12.00;95.60
59973;DHT22;55298;-36.624;-64.282;2023-05-07T08:24:55;12.00;95.70
59973;DHT22;55298;-36.624;-64.282;2023-05-07T08:27:23;12.00;95.90
59973;DHT22;55298;-36.624;-64.282;2023-05-07T08:29:51;12.00;96.10
59973;DHT22;55298;-36.624;-64.282;2023-05-07T08:32:19;12.00;96.00
59973;DHT22;55298;-36.624;-64.282;2023-05-07T08:34:47;12.00;95.90
59973;DHT22;55298;-36.624;-64.282;2023-05-07T08:37:15;11.90;95.90
59973;DHT22;55298;-36.624;-64.282;2023-05-07T08:39:42;11.90;95.90
59973;DHT22;55298;-36.624;-64.282;2023-05-07T08:42:11;11.90;95.90
59973;DHT22;55298;-36.624;-64.282;2023-05-07T08:44:39;11.90;95.80
59973;DHT22;55298;-36.624;-64.282;2023-05-07T08:47:07;11.80;95.70
59973;DHT22;55298;-36.624;-64.282;2023-05-07T08:49:35;11.90;95.50
59973;DHT22;55298;-36.624;-64.282;2023-05-07T08:52:03;11.80;95.80
59973;DHT22;55298;-36.624;-64.282;2023-05-07T08:54:32;11.70;96.40
59973;DHT22;55298;-36.624;-64.282;2023-05-07T08:57:01;11.60;96.90
59973;DHT22;55298;-36.624;-64.282;2023-05-07T08:59:29;11.50;97.30
59973;DHT22;55298;-36.624;-64.282;2023-05-07T09:01:57;11.50;97.50
59973;DHT22;55298;-36.624;-64.282;2023-05-07T09:04:24;11.50;97.50
59973;DHT22;55298;-36.624;-64.282;2023-05-07T09:06:52;11.40;97.20
59973;DHT22;55298;-36.624;-64.282;2023-05-07T09:09:22;11.40;96.90
59973;DHT22;55298;-36.624;-64.282;2023-05-07T09:11:57;11.30;96.80
59973;DHT22;55298;-36.624;-64.282;2023-05-07T09:14:26;11.30;96.70
59973;DHT22;55298;-36.624;-64.282;2023-05-07T09:16:54;11.30;96.60
59973;DHT22;55298;-36.624;-64.282;2023-05-07T09:19:24;11.20;96.60
59973;DHT22;55298;-36.624;-64.282;2023-05-07T09:22:05;11.10;96.60
59973;DHT22;55298;-36.624;-64.282;2023-05-07T09:24:35;11.10;96.60
59973;DHT22;55298;-36.624;-64.282;2023-05-07T09:27:06;11.10;97.50
59973;DHT22;55298;-36.624;-64.282;2023-05-07T09:29:35;11.10;98.10
59973;DHT22;55298;-36.624;-64.282;2023-05-07T09:32:07;11.00;98.00
59973;DHT22;55298;-36.624;-64.282;2023-05-07T09:34:36;11.00;98.00
59973;DHT22;55298;-36.624;-64.282;2023-05-07T09:37:05;11.00;97.80
59973;DHT22;55298;-36.624;-64.282;2023-05-07T09:39:45;11.00;97.70
59973;DHT22;55298;-36.624;-64.282;2023-05-07T09:42:13;11.00;97.60
59973;DHT22;55298;-36.624;-64.282;2023-05-07T09:44:44;11.00;98.10
59973;DHT22;55298;-36.624;-64.282;2023-05-07T09:47:12;11.00;98.30
59973;DHT22;55298;-36.624;-64.282;2023-05-07T09:49:47;11.00;98.60
59973;DHT22;55298;-36.624;-64.282;2023-05-07T09:52:15;10.90;98.90
59973;DHT22;55298;-36.624;-64.282;2023-05-07T09:54:44;11.00;99.10
59973;DHT22;55298;-36.624;-64.282;2023-05-07T09:57:12;10.90;99.30
59973;DHT22;55298;-36.624;-64.282;2023-05-07T09:59:43;10.90;99.50
59973;DHT22;55298;-36.624;-64.282;2023-05-07T10:02:11;10.90;99.80
59973;DHT22;55298;-36.624;-64.282;2023-05-07T10:04:41;10.90;99.90
59973;DHT22;55298;-36.624;-64.282;2023-05-07T10:07:09;10.90;99.90
59973;DHT22;55298;-36.624;-64.282;2023-05-07T10:09:37;10.90;99.90
59973;DHT22;55298;-36.624;-64.282;2023-05-07T10:12:07;10.90;99.70
59973;DHT22;55298;-36.624;-64.282;2023-05-07T10:14:35;10.90;99.70
59973;DHT22;55298;-36.624;-64.282;2023-05-07T10:17:03;10.90;99.40
59973;DHT22;55298;-36.624;-64.282;2023-05-07T10:19:31;11.00;99.10
59973;DHT22;55298;-36.624;-64.282;2023-05-07T10:22:04;10.90;98.90
59973;DHT22;55298;-36.624;-64.282;2023-05-07T10:24:33;10.90;99.00
59973;DHT22;55298;-36.624;-64.282;2023-05-07T10:27:05;10.90;99.40
59973;DHT22;55298;-36.624;-64.282;2023-05-07T10:32:40;10.90;99.10
59973;DHT22;55298;-36.624;-64.282;2023-05-07T10:35:17;10.90;99.20
59973;DHT22;55298;-36.624;-64.282;2023-05-07T10:37:46;11.00;99.30
59973;DHT22;55298;-36.624;-64.282;2023-05-07T10:40:14;10.90;99.40
59973;DHT22;55298;-36.624;-64.282;2023-05-07T10:42:55;10.90;99.40
59973;DHT22;55298;-36.624;-64.282;2023-05-07T10:45:23;10.90;99.40
59973;DHT22;55298;-36.624;-64.282;2023-05-07T10:50:39;10.90;99.60
59973;DHT22;55298;-36.624;-64.282;2023-05-07T10:56:25;10.80;99.50
59973;DHT22;55298;-36.624;-64.282;2023-05-07T10:58:53;10.80;99.50
59973;DHT22;55298;-36.624;-64.282;2023-05-07T11:04:18;10.80;99.10
59973;DHT22;55298;-36.624;-64.282;2023-05-07T11:07:23;10.70;99.50
59973;DHT22;55298;-36.624;-64.282;2023-05-07T11:09:59;10.80;99.80
59973;DHT22;55298;-36.624;-64.282;2023-05-07T11:12:48;10.80;99.90
59973;DHT22;55298;-36.624;-64.282;2023-05-07T11:15:34;10.80;99.90
59973;DHT22;55298;-36.624;-64.282;2023-05-07T11:18:03;10.70;99.90
59973;DHT22;55298;-36.624;-64.282;2023-05-07T11:20:48;10.80;99.90
59973;DHT22;55298;-36.624;-64.282;2023-05-07T11:26:14;10.80;99.90
59973;DHT22;55298;-36.624;-64.282;2023-05-07T11:28:45;10.80;99.90
59973;DHT22;55298;-36.624;-64.282;2023-05-07T11:31:12;10.80;99.90
59973;DHT22;55298;-36.624;-64.282;2023-05-07T11:33:40;10.90;99.90
59973;DHT22;55298;-36.624;-64.282;2023-05-07T11:36:09;11.20;99.90
59973;DHT22;55298;-36.624;-64.282;2023-05-07T11:38:37;11.90;99.90
59973;DHT22;55298;-36.624;-64.282;2023-05-07T11:41:07;12.70;99.90
59973;DHT22;55298;-36.624;-64.282;2023-05-07T11:43:35;13.50;97.00
59973;DHT22;55298;-36.624;-64.282;2023-05-07T11:46:08;14.40;94.70
59973;DHT22;55298;-36.624;-64.282;2023-05-07T11:48:40;15.10;92.20
59973;DHT22;55298;-36.624;-64.282;2023-05-07T11:51:08;15.50;89.70
59973;DHT22;55298;-36.624;-64.282;2023-05-07T11:53:41;15.90;85.00
59973;DHT22;55298;-36.624;-64.282;2023-05-07T11:56:13;16.40;81.90
59973;DHT22;55298;-36.624;-64.282;2023-05-07T11:58:42;16.90;78.30
59973;DHT22;55298;-36.624;-64.282;2023-05-07T12:01:13;17.40;76.10
59973;DHT22;55298;-36.624;-64.282;2023-05-07T12:03:42;17.70;71.40
59973;DHT22;55298;-36.624;-64.282;2023-05-07T12:06:12;17.90;70.90
59973;DHT22;55298;-36.624;-64.282;2023-05-07T12:08:42;18.10;68.00
59973;DHT22;55298;-36.624;-64.282;2023-05-07T12:11:15;18.20;67.50
59973;DHT22;55298;-36.624;-64.282;2023-05-07T12:13:44;18.50;66.70
59973;DHT22;55298;-36.624;-64.282;2023-05-07T12:16:13;18.60;64.40
59973;DHT22;55298;-36.624;-64.282;2023-05-07T12:18:41;18.70;64.20
59973;DHT22;55298;-36.624;-64.282;2023-05-07T12:21:09;19.10;62.50
59973;DHT22;55298;-36.624;-64.282;2023-05-07T12:23:38;19.90;66.60
59973;DHT22;55298;-36.624;-64.282;2023-05-07T12:26:06;20.50;60.90
59973;DHT22;55298;-36.624;-64.282;2023-05-07T12:28:37;21.30;60.70
59973;DHT22;55298;-36.624;-64.282;2023-05-07T12:31:06;22.00;57.30
59973;DHT22;55298;-36.624;-64.282;2023-05-07T12:33:35;22.60;55.40
59973;DHT22;55298;-36.624;-64.282;2023-05-07T12:36:06;23.20;56.20
59973;DHT22;55298;-36.624;-64.282;2023-05-07T12:38:37;23.90;57.20
59973;DHT22;55298;-36.624;-64.282;2023-05-07T12:41:08;24.50;52.00
59973;DHT22;55298;-36.624;-64.282;2023-05-07T12:43:36;24.90;53.00
59973;DHT22;55298;-36.624;-64.282;2023-05-07T12:46:06;25.20;48.50
59973;DHT22;55298;-36.624;-64.282;2023-05-07T12:48:41;25.30;44.80
59973;DHT22;55298;-36.624;-64.282;2023-05-07T12:51:10;25.50;50.20
59973;DHT22;55298;-36.624;-64.282;2023-05-07T12:53:42;25.30;43.80
59973;DHT22;55298;-36.624;-64.282;2023-05-07T12:56:10;25.60;45.20
59973;DHT22;55298;-36.624;-64.282;2023-05-07T12:58:38;25.80;46.20
59973;DHT22;55298;-36.624;-64.282;2023-05-07T13:01:07;25.90;44.40
59973;DHT22;55298;-36.624;-64.282;2023-05-07T13:03:38;26.00;43.10
59973;DHT22;55298;-36.624;-64.282;2023-05-07T13:06:08;25.90;41.60
59973;DHT22;55298;-36.624;-64.282;2023-05-07T13:08:39;26.00;43.20
59973;DHT22;55298;-36.624;-64.282;2023-05-07T13:11:09;25.90;40.50
59973;DHT22;55298;-36.624;-64.282;2023-05-07T13:13:38;25.70;39.90
59973;DHT22;55298;-36.624;-64.282;2023-05-07T13:16:11;25.70;41.10
59973;DHT22;55298;-36.624;-64.282;2023-05-07T13:18:40;25.90;41.80
59973;DHT22;55298;-36.624;-64.282;2023-05-07T13:21:10;26.10;40.50
59973;DHT22;55298;-36.624;-64.282;2023-05-07T13:23:40;26.50;43.40
59973;DHT22;55298;-36.624;-64.282;2023-05-07T13:26:07;26.70;38.60
59973;DHT22;55298;-36.624;-64.282;2023-05-07T13:28:35;27.00;40.70
59973;DHT22;55298;-36.624;-64.282;2023-05-07T13:31:03;27.10;40.10
59973;DHT22;55298;-36.624;-64.282;2023-05-07T13:33:32;27.50;41.80
59973;DHT22;55298;-36.624;-64.282;2023-05-07T13:36:00;27.50;37.30
59973;DHT22;55298;-36.624;-64.282;2023-05-07T13:38:29;27.60;38.00
59973;DHT22;55298;-36.624;-64.282;2023-05-07T13:40:57;27.70;39.80
59973;DHT22;55298;-36.624;-64.282;2023-05-07T13:43:25;27.60;37.80
59973;DHT22;55298;-36.624;-64.282;2023-05-07T13:45:53;27.50;37.90
59973;DHT22;55298;-36.624;-64.282;2023-05-07T13:48:21;27.80;40.60
59973;DHT22;55298;-36.624;-64.282;2023-05-07T13:50:49;28.10;38.90
59973;DHT22;55298;-36.624;-64.282;2023-05-07T13:53:17;28.40;39.40
59973;DHT22;55298;-36.624;-64.282;2023-05-07T13:55:45;28.40;38.20
59973;DHT22;55298;-36.624;-64.282;2023-05-07T13:58:13;28.10;35.50
59973;DHT22;55298;-36.624;-64.282;2023-05-07T14:00:41;27.60;35.90
59973;DHT22;55298;-36.624;-64.282;2023-05-07T14:03:09;27.10;36.10
59973;DHT22;55298;-36.624;-64.282;2023-05-07T14:05:37;26.70;35.80
59973;DHT22;55298;-36.624;-64.282;2023-05-07T14:08:04;27.00;40.10
59973;DHT22;55298;-36.624;-64.282;2023-05-07T14:10:34;27.00;35.50
59973;DHT22;55298;-36.624;-64.282;2023-05-07T14:13:02;27.30;38.10
59973;DHT22;55298;-36.624;-64.282;2023-05-07T14:15:30;27.50;40.50
59973;DHT22;55298;-36.624;-64.282;2023-05-07T14:18:01;27.30;35.50
59973;DHT22;55298;-36.624;-64.282;2023-05-07T14:20:29;26.90;36.70
59973;DHT22;55298;-36.624;-64.282;2023-05-07T14:22:57;27.20;37.80
59973;DHT22;55298;-36.624;-64.282;2023-05-07T14:25:25;27.30;35.50
59973;DHT22;55298;-36.624;-64.282;2023-05-07T14:27:53;27.60;38.30
59973;DHT22;55298;-36.624;-64.282;2023-05-07T14:30:21;27.50;33.90
59973;DHT22;55298;-36.624;-64.282;2023-05-07T14:32:55;27.10;35.80
59973;DHT22;55298;-36.624;-64.282;2023-05-07T14:35:22;27.10;36.90
59973;DHT22;55298;-36.624;-64.282;2023-05-07T14:37:50;27.30;36.80
59973;DHT22;55298;-36.624;-64.282;2023-05-07T14:40:22;27.50;37.10
59973;DHT22;55298;-36.624;-64.282;2023-05-07T14:42:50;27.80;37.30
59973;DHT22;55298;-36.624;-64.282;2023-05-07T14:45:18;28.00;36.80
59973;DHT22;55298;-36.624;-64.282;2023-05-07T14:47:46;28.20;36.50
59973;DHT22;55298;-36.624;-64.282;2023-05-07T14:50:14;28.10;34.90
59973;DHT22;55298;-36.624;-64.282;2023-05-07T14:52:42;27.90;36.10
59973;DHT22;55298;-36.624;-64.282;2023-05-07T14:55:11;27.60;37.40
59973;DHT22;55298;-36.624;-64.282;2023-05-07T14:57:45;27.20;37.60
59973;DHT22;55298;-36.624;-64.282;2023-05-07T15:00:14;26.60;37.40
59973;DHT22;55298;-36.624;-64.282;2023-05-07T15:02:42;26.00;38.50
59973;DHT22;55298;-36.624;-64.282;2023-05-07T15:05:09;25.10;38.80
59973;DHT22;55298;-36.624;-64.282;2023-05-07T15:07:38;24.30;40.10
59973;DHT22;55298;-36.624;-64.282;2023-05-07T15:10:07;23.50;42.00
59973;DHT22;55298;-36.624;-64.282;2023-05-07T15:12:34;23.10;43.50